sensor_id;sensor_type;location;lat;lon;timestamp;temperature;humidity
39655;DHT22;25336;59.944;11.010;2024-02-04T00:01:53;4.40;54.20
39655;DHT22;25336;59.944;11.010;2024-02-04T00:04:18;4.40;54.30
39655;DHT22;25336;59.944;11.010;2024-02-04T00:06:44;4.40;54.30
39655;DHT22;25336;59.944;11.010;2024-02-04T00:09:10;4.40;54.20
39655;DHT22;25336;59.944;11.010;2024-02-04T00:11:36;4.30;54.10
39655;DHT22;25336;59.944;11.010;2024-02-04T00:14:02;4.30;54.70
39655;DHT22;25336;59.944;11.010;2024-02-04T00:16:28;4.30;54.10
39655;DHT22;25336;59.944;11.010;2024-02-04T00:18:54;4.20;53.90
39655;DHT22;25336;59.944;11.010;2024-02-04T00:21:21;4.20;53.70
39655;DHT22;25336;59.944;11.010;2024-02-04T00:23:47;4.20;53.40
39655;DHT22;25336;59.944;11.010;2024-02-04T00:26:13;4.20;53.50
39655;DHT22;25336;59.944;11.010;2024-02-04T00:28:38;4.20;53.50
39655;DHT22;25336;59.944;11.010;2024-02-04T00:31:08;4.20;53.30
39655;DHT22;25336;59.944;11.010;2024-02-04T00:33:34;4.20;53.20
39655;DHT22;25336;59.944;11.010;2024-02-04T00:36:00;4.20;53.10
39655;DHT22;25336;59.944;11.010;2024-02-04T00:38:25;4.10;52.80
39655;DHT22;25336;59.944;11.010;2024-02-04T00:40:52;4.20;52.60
39655;DHT22;25336;59.944;11.010;2024-02-04T00:43:20;4.20;52.40
39655;DHT22;25336;59.944;11.010;2024-02-04T00:45:46;4.20;52.20
39655;DHT22;25336;59.944;11.010;2024-02-04T00:48:11;4.20;51.90
39655;DHT22;25336;59.944;11.010;2024-02-04T00:50:38;4.20;52.00
39655;DHT22;25336;59.944;11.010;2024-02-04T00:53:04;4.20;52.00
39655;DHT22;25336;59.944;11.010;2024-02-04T00:55:30;4.20;52.00
39655;DHT22;25336;59.944;11.010;2024-02-04T00:57:56;4.20;51.60
39655;DHT22;25336;59.944;11.010;2024-02-04T01:00:24;4.20;51.60
39655;DHT22;25336;59.944;11.010;2024-02-04T01:02:50;6.00;52.30
39655;DHT22;25336;59.944;11.010;2024-02-04T01:05:16;4.20;51.30
39655;DHT22;25336;59.944;11.010;2024-02-04T01:07:42;4.20;51.50
39655;DHT22;25336;59.944;11.010;2024-02-04T01:10:11;4.20;51.20
39655;DHT22;25336;59.944;11.010;2024-02-04T01:12:37;4.20;51.10
39655;DHT22;25336;59.944;11.010;2024-02-04T01:15:02;4.20;51.20
39655;DHT22;25336;59.944;11.010;2024-02-04T01:17:30;4.20;51.10
39655;DHT22;25336;59.944;11.010;2024-02-04T01:19:56;4.30;51.30
39655;DHT22;25336;59.944;11.010;2024-02-04T01:22:23;4.20;51.20
39655;DHT22;25336;59.944;11.010;2024-02-04T01:24:52;4.20;51.20
39655;DHT22;25336;59.944;11.010;2024-02-04T01:27:18;4.10;51.10
39655;DHT22;25336;59.944;11.010;2024-02-04T01:29:44;4.10;51.20
39655;DHT22;25336;59.944;11.010;2024-02-04T01:32:10;4.00;51.10
39655;DHT22;25336;59.944;11.010;2024-02-04T01:34:39;4.00;51.30
39655;DHT22;25336;59.944;11.010;2024-02-04T01:37:05;4.00;51.00
39655;DHT22;25336;59.944;11.010;2024-02-04T01:39:31;3.90;51.20
39655;DHT22;25336;59.944;11.010;2024-02-04T01:41:57;3.90;51.20
39655;DHT22;25336;59.944;11.010;2024-02-04T01:44:23;3.90;51.40
39655;DHT22;25336;59.944;11.010;2024-02-04T01:46:50;3.90;51.50
39655;DHT22;25336;59.944;11.010;2024-02-04T01:49:16;3.90;51.70
39655;DHT22;25336;59.944;11.010;2024-02-04T01:51:42;3.90;51.80
39655;DHT22;25336;59.944;11.010;2024-02-04T01:54:10;5.30;52.60
39655;DHT22;25336;59.944;11.010;2024-02-04T01:56:36;3.80;51.90
39655;DHT22;25336;59.944;11.010;2024-02-04T01:59:02;3.80;52.10
39655;DHT22;25336;59.944;11.010;2024-02-04T02:01:31;3.80;52.10
39655;DHT22;25336;59.944;11.010;2024-02-04T02:03:58;3.80;52.10
39655;DHT22;25336;59.944;11.010;2024-02-04T02:06:24;3.80;52.20
39655;DHT22;25336;59.944;11.010;2024-02-04T02:08:49;3.80;52.40
39655;DHT22;25336;59.944;11.010;2024-02-04T02:11:24;3.80;52.50
39655;DHT22;25336;59.944;11.010;2024-02-04T02:13:59;3.70;52.60
39655;DHT22;25336;59.944;11.010;2024-02-04T02:16:27;3.70;52.80
39655;DHT22;25336;59.944;11.010;2024-02-04T02:19:03;3.70;52.90
39655;DHT22;25336;59.944;11.010;2024-02-04T02:21:38;3.70;52.90
39655;DHT22;25336;59.944;11.010;2024-02-04T02:26:49;3.70;53.20
39655;DHT22;25336;59.944;11.010;2024-02-04T02:29:16;3.70;53.20
39655;DHT22;25336;59.944;11.010;2024-02-04T02:31:42;3.70;53.30
39655;DHT22;25336;59.944;11.010;2024-02-04T02:34:09;3.70;53.40
39655;DHT22;25336;59.944;11.010;2024-02-04T02:36:43;3.80;53.50
39655;DHT22;25336;59.944;11.010;2024-02-04T02:39:15;3.70;53.40
39655;DHT22;25336;59.944;11.010;2024-02-04T02:41:42;3.80;53.50
39655;DHT22;25336;59.944;11.010;2024-02-04T02:44:09;3.80;53.50
39655;DHT22;25336;59.944;11.010;2024-02-04T02:46:37;3.80;53.50
39655;DHT22;25336;59.944;11.010;2024-02-04T02:49:05;3.90;53.50
39655;DHT22;25336;59.944;11.010;2024-02-04T02:51:31;3.80;53.50
39655;DHT22;25336;59.944;11.010;2024-02-04T02:53:58;3.90;53.60
39655;DHT22;25336;59.944;11.010;2024-02-04T02:56:24;3.90;53.60
39655;DHT22;25336;59.944;11.010;2024-02-04T02:58:49;3.90;53.70
39655;DHT22;25336;59.944;11.010;2024-02-04T03:01:15;3.90;53.70
39655;DHT22;25336;59.944;11.010;2024-02-04T03:03:41;4.00;53.70
39655;DHT22;25336;59.944;11.010;2024-02-04T03:06:07;4.00;53.60
39655;DHT22;25336;59.944;11.010;2024-02-04T03:08:33;4.00;53.70
39655;DHT22;25336;59.944;11.010;2024-02-04T03:10:59;4.00;53.70
39655;DHT22;25336;59.944;11.010;2024-02-04T03:13:24;4.10;53.80
39655;DHT22;25336;59.944;11.010;2024-02-04T03:15:50;4.00;53.80
39655;DHT22;25336;59.944;11.010;2024-02-04T03:18:17;4.00;53.90
39655;DHT22;25336;59.944;11.010;2024-02-04T03:20:43;4.10;53.90
39655;DHT22;25336;59.944;11.010;2024-02-04T03:23:09;4.00;53.90
39655;DHT22;25336;59.944;11.010;2024-02-04T03:25:34;4.10;54.00
39655;DHT22;25336;59.944;11.010;2024-02-04T03:28:00;4.00;54.10
39655;DHT22;25336;59.944;11.010;2024-02-04T03:30:26;4.10;54.30
39655;DHT22;25336;59.944;11.010;2024-02-04T03:32:51;4.10;54.40
39655;DHT22;25336;59.944;11.010;2024-02-04T03:35:17;4.10;54.50
39655;DHT22;25336;59.944;11.010;2024-02-04T03:37:43;4.10;54.50
39655;DHT22;25336;59.944;11.010;2024-02-04T03:40:09;4.20;54.60
39655;DHT22;25336;59.944;11.010;2024-02-04T03:42:36;4.20;54.80
39655;DHT22;25336;59.944;11.010;2024-02-04T03:45:02;4.20;54.90
39655;DHT22;25336;59.944;11.010;2024-02-04T03:47:29;4.20;54.90
39655;DHT22;25336;59.944;11.010;2024-02-04T03:49:54;4.20;55.00
39655;DHT22;25336;59.944;11.010;2024-02-04T03:52:20;4.10;55.10
39655;DHT22;25336;59.944;11.010;2024-02-04T03:54:46;4.20;55.20
39655;DHT22;25336;59.944;11.010;2024-02-04T03:57:11;4.20;55.20
39655;DHT22;25336;59.944;11.010;2024-02-04T03:59:37;3.50;54.90
39655;DHT22;25336;59.944;11.010;2024-02-04T04:02:03;4.20;55.30
39655;DHT22;25336;59.944;11.010;2024-02-04T04:04:29;4.20;55.30
39655;DHT22;25336;59.944;11.010;2024-02-04T04:06:55;4.20;55.40
39655;DHT22;25336;59.944;11.010;2024-02-04T04:09:21;4.20;55.50
39655;DHT22;25336;59.944;11.010;2024-02-04T04:11:46;4.10;55.50
39655;DHT22;25336;59.944;11.010;2024-02-04T04:14:12;4.10;55.60
39655;DHT22;25336;59.944;11.010;2024-02-04T04:16:38;4.10;55.70
39655;DHT22;25336;59.944;11.010;2024-02-04T04:19:03;4.10;55.80
39655;DHT22;25336;59.944;11.010;2024-02-04T04:21:29;3.80;56.40
39655;DHT22;25336;59.944;11.010;2024-02-04T04:23:56;4.10;55.90
39655;DHT22;25336;59.944;11.010;2024-02-04T04:26:22;4.10;56.10
39655;DHT22;25336;59.944;11.010;2024-02-04T04:28:47;4.10;56.20
39655;DHT22;25336;59.944;11.010;2024-02-04T04:31:13;4.10;56.30
39655;DHT22;25336;59.944;11.010;2024-02-04T04:33:39;4.10;56.40
39655;DHT22;25336;59.944;11.010;2024-02-04T04:36:05;4.10;56.40
39655;DHT22;25336;59.944;11.010;2024-02-04T04:38:31;4.10;56.50
39655;DHT22;25336;59.944;11.010;2024-02-04T04:40:57;4.10;56.60
39655;DHT22;25336;59.944;11.010;2024-02-04T04:43:23;4.10;56.70
39655;DHT22;25336;59.944;11.010;2024-02-04T04:45:49;4.20;56.90
39655;DHT22;25336;59.944;11.010;2024-02-04T04:48:15;4.20;56.90
39655;DHT22;25336;59.944;11.010;2024-02-04T04:50:40;4.20;57.10
39655;DHT22;25336;59.944;11.010;2024-02-04T04:53:06;4.30;57.00
39655;DHT22;25336;59.944;11.010;2024-02-04T04:55:32;4.20;57.10
39655;DHT22;25336;59.944;11.010;2024-02-04T04:57:58;4.30;57.20
39655;DHT22;25336;59.944;11.010;2024-02-04T05:00:23;4.20;57.10
39655;DHT22;25336;59.944;11.010;2024-02-04T05:02:49;4.30;57.10
39655;DHT22;25336;59.944;11.010;2024-02-04T05:05:15;4.30;57.20
39655;DHT22;25336;59.944;11.010;2024-02-04T05:07:41;4.30;57.20
39655;DHT22;25336;59.944;11.010;2024-02-04T05:10:08;4.40;57.30
39655;DHT22;25336;59.944;11.010;2024-02-04T05:12:34;4.40;57.20
39655;DHT22;25336;59.944;11.010;2024-02-04T05:15:00;4.40;57.30
39655;DHT22;25336;59.944;11.010;2024-02-04T05:17:26;4.40;57.30
39655;DHT22;25336;59.944;11.010;2024-02-04T05:19:52;4.40;57.30
39655;DHT22;25336;59.944;11.010;2024-02-04T05:22:18;4.40;57.40
39655;DHT22;25336;59.944;11.010;2024-02-04T05:24:44;4.40;57.40
39655;DHT22;25336;59.944;11.010;2024-02-04T05:27:10;4.50;57.60
39655;DHT22;25336;59.944;11.010;2024-02-04T05:29:35;4.50;57.60
39655;DHT22;25336;59.944;11.010;2024-02-04T05:32:01;4.50;57.70
39655;DHT22;25336;59.944;11.010;2024-02-04T05:34:27;4.50;57.70
39655;DHT22;25336;59.944;11.010;2024-02-04T05:36:53;4.50;57.80
39655;DHT22;25336;59.944;11.010;2024-02-04T05:39:18;4.50;57.70
39655;DHT22;25336;59.944;11.010;2024-02-04T05:41:44;4.50;57.90
39655;DHT22;25336;59.944;11.010;2024-02-04T05:44:10;4.50;57.90
39655;DHT22;25336;59.944;11.010;2024-02-04T05:46:36;4.60;58.10
39655;DHT22;25336;59.944;11.010;2024-02-04T05:49:02;4.60;58.00
39655;DHT22;25336;59.944;11.010;2024-02-04T05:51:28;4.20;58.00
39655;DHT22;25336;59.944;11.010;2024-02-04T05:53:54;4.60;58.30
39655;DHT22;25336;59.944;11.010;2024-02-04T05:56:20;4.60;58.30
39655;DHT22;25336;59.944;11.010;2024-02-04T05:58:47;4.60;58.40
39655;DHT22;25336;59.944;11.010;2024-02-04T06:01:13;4.60;58.40
39655;DHT22;25336;59.944;11.010;2024-02-04T06:03:38;4.70;58.50
39655;DHT22;25336;59.944;11.010;2024-02-04T06:06:04;4.70;58.50
39655;DHT22;25336;59.944;11.010;2024-02-04T06:08:30;4.70;58.60
39655;DHT22;25336;59.944;11.010;2024-02-04T06:10:56;4.70;58.40
39655;DHT22;25336;59.944;11.010;2024-02-04T06:13:22;4.70;58.70
39655;DHT22;25336;59.944;11.010;2024-02-04T06:15:48;4.70;59.00
39655;DHT22;25336;59.944;11.010;2024-02-04T06:18:14;4.70;59.20
39655;DHT22;25336;59.944;11.010;2024-02-04T06:20:39;4.70;59.50
39655;DHT22;25336;59.944;11.010;2024-02-04T06:23:06;4.70;59.90
39655;DHT22;25336;59.944;11.010;2024-02-04T06:25:31;6.10;61.10
39655;DHT22;25336;59.944;11.010;2024-02-04T06:27:57;4.70;60.10
39655;DHT22;25336;59.944;11.010;2024-02-04T06:30:23;4.70;60.40
39655;DHT22;25336;59.944;11.010;2024-02-04T06:32:49;4.70;60.40
39655;DHT22;25336;59.944;11.010;2024-02-04T06:35:16;4.60;60.40
39655;DHT22;25336;59.944;11.010;2024-02-04T06:37:43;4.60;60.60
39655;DHT22;25336;59.944;11.010;2024-02-04T06:40:10;4.50;60.80
39655;DHT22;25336;59.944;11.010;2024-02-04T06:42:36;4.50;60.90
39655;DHT22;25336;59.944;11.010;2024-02-04T06:45:01;4.40;60.70
39655;DHT22;25336;59.944;11.010;2024-02-04T06:47:27;4.40;61.00
39655;DHT22;25336;59.944;11.010;2024-02-04T06:49:55;4.30;61.30
39655;DHT22;25336;59.944;11.010;2024-02-04T06:52:21;4.20;61.30
39655;DHT22;25336;59.944;11.010;2024-02-04T06:54:47;4.20;61.60
39655;DHT22;25336;59.944;11.010;2024-02-04T06:57:13;4.10;61.60
39655;DHT22;25336;59.944;11.010;2024-02-04T06:59:41;4.00;61.80
39655;DHT22;25336;59.944;11.010;2024-02-04T07:02:10;4.00;61.90
39655;DHT22;25336;59.944;11.010;2024-02-04T07:04:39;3.90;62.20
39655;DHT22;25336;59.944;11.010;2024-02-04T07:07:05;4.50;62.70
39655;DHT22;25336;59.944;11.010;2024-02-04T07:09:31;3.80;62.10
39655;DHT22;25336;59.944;11.010;2024-02-04T07:11:57;3.80;62.40
39655;DHT22;25336;59.944;11.010;2024-02-04T07:14:22;3.70;62.50
39655;DHT22;25336;59.944;11.010;2024-02-04T07:16:48;3.70;62.70
39655;DHT22;25336;59.944;11.010;2024-02-04T07:19:14;3.60;62.70
39655;DHT22;25336;59.944;11.010;2024-02-04T07:21:40;3.60;63.00
39655;DHT22;25336;59.944;11.010;2024-02-04T07:24:05;3.60;63.20
39655;DHT22;25336;59.944;11.010;2024-02-04T07:26:31;3.60;63.20
39655;DHT22;25336;59.944;11.010;2024-02-04T07:28:57;3.50;63.10
39655;DHT22;25336;59.944;11.010;2024-02-04T07:31:22;3.50;63.50
39655;DHT22;25336;59.944;11.010;2024-02-04T07:33:48;3.50;63.80
39655;DHT22;25336;59.944;11.010;2024-02-04T07:36:14;3.50;64.00
39655;DHT22;25336;59.944;11.010;2024-02-04T07:38:40;3.50;63.90
39655;DHT22;25336;59.944;11.010;2024-02-04T07:41:05;3.50;63.90
39655;DHT22;25336;59.944;11.010;2024-02-04T07:43:31;3.40;64.20
39655;DHT22;25336;59.944;11.010;2024-02-04T07:45:57;3.40;65.00
39655;DHT22;25336;59.944;11.010;2024-02-04T07:48:23;3.40;64.10
39655;DHT22;25336;59.944;11.010;2024-02-04T07:50:48;3.40;64.30
39655;DHT22;25336;59.944;11.010;2024-02-04T07:53:14;3.40;64.30
39655;DHT22;25336;59.944;11.010;2024-02-04T07:55:40;3.30;64.40
39655;DHT22;25336;59.944;11.010;2024-02-04T07:58:06;3.30;64.20
39655;DHT22;25336;59.944;11.010;2024-02-04T08:00:31;3.30;64.40
39655;DHT22;25336;59.944;11.010;2024-02-04T08:02:57;3.30;64.50
39655;DHT22;25336;59.944;11.010;2024-02-04T08:05:24;3.30;64.80
39655;DHT22;25336;59.944;11.010;2024-02-04T08:07:49;3.30;64.80
39655;DHT22;25336;59.944;11.010;2024-02-04T08:10:16;3.30;64.90
39655;DHT22;25336;59.944;11.010;2024-02-04T08:12:42;3.30;65.00
39655;DHT22;25336;59.944;11.010;2024-02-04T08:15:08;3.30;65.00
39655;DHT22;25336;59.944;11.010;2024-02-04T08:17:34;3.30;64.90
39655;DHT22;25336;59.944;11.010;2024-02-04T08:20:00;3.30;65.00
39655;DHT22;25336;59.944;11.010;2024-02-04T08:22:26;3.40;65.00
39655;DHT22;25336;59.944;11.010;2024-02-04T08:24:52;3.40;65.00
39655;DHT22;25336;59.944;11.010;2024-02-04T08:27:18;3.40;64.90
39655;DHT22;25336;59.944;11.010;2024-02-04T08:29:43;3.40;64.80
39655;DHT22;25336;59.944;11.010;2024-02-04T08:32:10;3.40;64.90
39655;DHT22;25336;59.944;11.010;2024-02-04T08:34:36;3.40;64.90
39655;DHT22;25336;59.944;11.010;2024-02-04T08:37:02;4.00;65.20
39655;DHT22;25336;59.944;11.010;2024-02-04T08:39:28;3.50;64.80
39655;DHT22;25336;59.944;11.010;2024-02-04T08:41:55;3.50;64.80
39655;DHT22;25336;59.944;11.010;2024-02-04T08:44:22;3.50;64.80
39655;DHT22;25336;59.944;11.010;2024-02-04T08:46:48;3.50;64.80
39655;DHT22;25336;59.944;11.010;2024-02-04T08:49:14;3.50;64.70
39655;DHT22;25336;59.944;11.010;2024-02-04T08:51:40;3.60;64.80
39655;DHT22;25336;59.944;11.010;2024-02-04T08:54:06;3.60;64.80
39655;DHT22;25336;59.944;11.010;2024-02-04T08:56:31;3.60;64.90
39655;DHT22;25336;59.944;11.010;2024-02-04T08:58:58;3.60;64.90
39655;DHT22;25336;59.944;11.010;2024-02-04T09:01:25;3.60;64.90
39655;DHT22;25336;59.944;11.010;2024-02-04T09:03:51;3.70;65.00
39655;DHT22;25336;59.944;11.010;2024-02-04T09:06:17;3.70;65.00
39655;DHT22;25336;59.944;11.010;2024-02-04T09:08:43;3.70;65.10
39655;DHT22;25336;59.944;11.010;2024-02-04T09:11:09;3.70;65.00
39655;DHT22;25336;59.944;11.010;2024-02-04T09:13:35;3.70;65.10
39655;DHT22;25336;59.944;11.010;2024-02-04T09:16:01;3.80;65.30
39655;DHT22;25336;59.944;11.010;2024-02-04T09:18:27;3.80;65.30
39655;DHT22;25336;59.944;11.010;2024-02-04T09:20:52;3.80;65.30
39655;DHT22;25336;59.944;11.010;2024-02-04T09:23:18;3.80;65.30
39655;DHT22;25336;59.944;11.010;2024-02-04T09:25:44;3.90;65.30
39655;DHT22;25336;59.944;11.010;2024-02-04T09:28:11;3.90;65.30
39655;DHT22;25336;59.944;11.010;2024-02-04T09:30:37;4.00;65.30
39655;DHT22;25336;59.944;11.010;2024-02-04T09:33:03;4.00;65.20
39655;DHT22;25336;59.944;11.010;2024-02-04T09:35:28;4.10;65.20
39655;DHT22;25336;59.944;11.010;2024-02-04T09:37:55;4.10;65.20
39655;DHT22;25336;59.944;11.010;2024-02-04T09:40:21;4.10;65.10
39655;DHT22;25336;59.944;11.010;2024-02-04T09:42:47;4.10;64.90
39655;DHT22;25336;59.944;11.010;2024-02-04T09:45:14;4.20;64.70
39655;DHT22;25336;59.944;11.010;2024-02-04T09:47:42;4.20;64.50
39655;DHT22;25336;59.944;11.010;2024-02-04T09:50:10;4.20;64.50
39655;DHT22;25336;59.944;11.010;2024-02-04T09:52:39;4.20;64.40
39655;DHT22;25336;59.944;11.010;2024-02-04T09:55:07;4.30;64.30
39655;DHT22;25336;59.944;11.010;2024-02-04T09:57:36;4.30;64.20
39655;DHT22;25336;59.944;11.010;2024-02-04T10:00:05;4.30;64.20
39655;DHT22;25336;59.944;11.010;2024-02-04T10:02:32;4.30;64.20
39655;DHT22;25336;59.944;11.010;2024-02-04T10:04:58;4.40;64.20
39655;DHT22;25336;59.944;11.010;2024-02-04T10:07:23;4.40;65.00
39655;DHT22;25336;59.944;11.010;2024-02-04T10:09:50;4.40;64.10
39655;DHT22;25336;59.944;11.010;2024-02-04T10:12:17;4.40;64.00
39655;DHT22;25336;59.944;11.010;2024-02-04T10:14:43;4.50;64.10
39655;DHT22;25336;59.944;11.010;2024-02-04T10:17:09;4.50;64.00
39655;DHT22;25336;59.944;11.010;2024-02-04T10:19:40;4.60;64.10
39655;DHT22;25336;59.944;11.010;2024-02-04T10:22:06;4.60;64.00
39655;DHT22;25336;59.944;11.010;2024-02-04T10:24:36;4.60;63.80
39655;DHT22;25336;59.944;11.010;2024-02-04T10:27:11;3.70;63.20
39655;DHT22;25336;59.944;11.010;2024-02-04T10:29:38;4.70;63.80
39655;DHT22;25336;59.944;11.010;2024-02-04T10:32:04;4.70;63.70
39655;DHT22;25336;59.944;11.010;2024-02-04T10:34:37;4.70;63.60
39655;DHT22;25336;59.944;11.010;2024-02-04T10:37:05;4.70;63.40
39655;DHT22;25336;59.944;11.010;2024-02-04T10:39:30;4.80;63.40
39655;DHT22;25336;59.944;11.010;2024-02-04T10:42:01;4.80;63.40
39655;DHT22;25336;59.944;11.010;2024-02-04T10:44:28;4.80;63.30
39655;DHT22;25336;59.944;11.010;2024-02-04T10:47:02;4.80;63.30
39655;DHT22;25336;59.944;11.010;2024-02-04T10:49:30;4.80;63.30
39655;DHT22;25336;59.944;11.010;2024-02-04T10:52:00;4.80;63.20
39655;DHT22;25336;59.944;11.010;2024-02-04T10:54:28;4.80;63.30
39655;DHT22;25336;59.944;11.010;2024-02-04T10:57:01;4.80;63.20
39655;DHT22;25336;59.944;11.010;2024-02-04T10:59:29;4.80;63.20
39655;DHT22;25336;59.944;11.010;2024-02-04T11:01:58;4.90;63.30
39655;DHT22;25336;59.944;11.010;2024-02-04T11:04:24;4.90;63.30
39655;DHT22;25336;59.944;11.010;2024-02-04T11:06:52;4.90;63.20
39655;DHT22;25336;59.944;11.010;2024-02-04T11:09:19;4.90;63.20
39655;DHT22;25336;59.944;11.010;2024-02-04T11:11:47;5.00;63.10
39655;DHT22;25336;59.944;11.010;2024-02-04T11:14:16;5.00;63.20
39655;DHT22;25336;59.944;11.010;2024-02-04T11:19:34;5.00;63.00
39655;DHT22;25336;59.944;11.010;2024-02-04T11:27:26;5.20;62.90
39655;DHT22;25336;59.944;11.010;2024-02-04T11:29:53;5.20;62.80
39655;DHT22;25336;59.944;11.010;2024-02-04T11:32:19;5.50;63.00
39655;DHT22;25336;59.944;11.010;2024-02-04T11:34:50;5.30;62.70
39655;DHT22;25336;59.944;11.010;2024-02-04T11:37:18;5.30;62.70
39655;DHT22;25336;59.944;11.010;2024-02-04T11:39:52;4.40;62.00
39655;DHT22;25336;59.944;11.010;2024-02-04T11:42:19;5.40;62.50
39655;DHT22;25336;59.944;11.010;2024-02-04T11:44:48;5.50;62.50
39655;DHT22;25336;59.944;11.010;2024-02-04T11:47:24;5.50;62.40
39655;DHT22;25336;59.944;11.010;2024-02-04T11:49:59;5.50;62.30
39655;DHT22;25336;59.944;11.010;2024-02-04T11:52:28;5.60;62.20
39655;DHT22;25336;59.944;11.010;2024-02-04T11:54:54;5.60;62.10
39655;DHT22;25336;59.944;11.010;2024-02-04T11:57:20;5.70;62.80
39655;DHT22;25336;59.944;11.010;2024-02-04T11:59:47;5.70;61.90
39655;DHT22;25336;59.944;11.010;2024-02-04T12:02:16;5.80;62.60
39655;DHT22;25336;59.944;11.010;2024-02-04T12:04:44;5.80;61.60
39655;DHT22;25336;59.944;11.010;2024-02-04T12:07:10;5.90;61.50
39655;DHT22;25336;59.944;11.010;2024-02-04T12:09:37;5.90;61.30
39655;DHT22;25336;59.944;11.010;2024-02-04T12:12:04;6.00;61.20
39655;DHT22;25336;59.944;11.010;2024-02-04T12:14:31;6.00;61.10
39655;DHT22;25336;59.944;11.010;2024-02-04T12:16:57;6.10;61.10
39655;DHT22;25336;59.944;11.010;2024-02-04T12:19:24;6.10;61.00
39655;DHT22;25336;59.944;11.010;2024-02-04T12:21:53;6.10;60.70
39655;DHT22;25336;59.944;11.010;2024-02-04T12:24:20;6.20;60.60
39655;DHT22;25336;59.944;11.010;2024-02-04T12:26:47;6.20;60.20
39655;DHT22;25336;59.944;11.010;2024-02-04T12:29:13;6.20;60.20
39655;DHT22;25336;59.944;11.010;2024-02-04T12:31:40;6.20;60.10
39655;DHT22;25336;59.944;11.010;2024-02-04T12:34:08;6.20;60.00
39655;DHT22;25336;59.944;11.010;2024-02-04T12:36:34;6.20;59.80
39655;DHT22;25336;59.944;11.010;2024-02-04T12:39:01;6.20;59.90
39655;DHT22;25336;59.944;11.010;2024-02-04T12:41:28;6.20;59.80
39655;DHT22;25336;59.944;11.010;2024-02-04T12:43:56;5.30;59.30
39655;DHT22;25336;59.944;11.010;2024-02-04T12:46:24;6.20;60.40
39655;DHT22;25336;59.944;11.010;2024-02-04T12:48:57;6.20;59.80
39655;DHT22;25336;59.944;11.010;2024-02-04T12:51:28;6.20;59.80
39655;DHT22;25336;59.944;11.010;2024-02-04T12:54:08;6.20;59.80
39655;DHT22;25336;59.944;11.010;2024-02-04T12:56:49;6.20;59.60
39655;DHT22;25336;59.944;11.010;2024-02-04T12:59:32;6.20;59.60
39655;DHT22;25336;59.944;11.010;2024-02-04T13:04:35;6.20;59.60
39655;DHT22;25336;59.944;11.010;2024-02-04T13:07:01;6.30;59.60
39655;DHT22;25336;59.944;11.010;2024-02-04T13:09:31;6.30;59.50
39655;DHT22;25336;59.944;11.010;2024-02-04T13:12:04;6.30;59.60
39655;DHT22;25336;59.944;11.010;2024-02-04T13:14:33;6.30;59.40
39655;DHT22;25336;59.944;11.010;2024-02-04T13:16:59;6.30;59.40
39655;DHT22;25336;59.944;11.010;2024-02-04T13:19:31;6.40;59.40
39655;DHT22;25336;59.944;11.010;2024-02-04T13:21:57;6.40;59.30
39655;DHT22;25336;59.944;11.010;2024-02-04T13:24:22;6.40;59.30
39655;DHT22;25336;59.944;11.010;2024-02-04T13:26:48;6.40;59.20
39655;DHT22;25336;59.944;11.010;2024-02-04T13:29:14;6.50;59.10
39655;DHT22;25336;59.944;11.010;2024-02-04T13:31:40;6.50;59.10
39655;DHT22;25336;59.944;11.010;2024-02-04T13:34:06;6.50;59.00
39655;DHT22;25336;59.944;11.010;2024-02-04T13:36:35;6.50;59.00
39655;DHT22;25336;59.944;11.010;2024-02-04T13:39:01;6.50;58.80
39655;DHT22;25336;59.944;11.010;2024-02-04T13:41:27;6.50;58.70
39655;DHT22;25336;59.944;11.010;2024-02-04T13:43:53;7.00;58.90
39655;DHT22;25336;59.944;11.010;2024-02-04T13:46:19;7.00;58.90
39655;DHT22;25336;59.944;11.010;2024-02-04T13:48:46;6.60;58.60
39655;DHT22;25336;59.944;11.010;2024-02-04T13:51:12;6.60;58.50
39655;DHT22;25336;59.944;11.010;2024-02-04T13:53:38;6.60;58.40
39655;DHT22;25336;59.944;11.010;2024-02-04T13:56:04;6.60;58.40
39655;DHT22;25336;59.944;11.010;2024-02-04T13:58:30;6.50;58.30
39655;DHT22;25336;59.944;11.010;2024-02-04T14:00:56;6.50;58.30
39655;DHT22;25336;59.944;11.010;2024-02-04T14:03:23;6.50;58.20
39655;DHT22;25336;59.944;11.010;2024-02-04T14:05:50;6.50;58.20
39655;DHT22;25336;59.944;11.010;2024-02-04T14:08:16;6.50;58.20
39655;DHT22;25336;59.944;11.010;2024-02-04T14:10:42;6.50;58.10
39655;DHT22;25336;59.944;11.010;2024-02-04T14:13:08;6.50;58.00
39655;DHT22;25336;59.944;11.010;2024-02-04T14:15:34;6.40;58.00
39655;DHT22;25336;59.944;11.010;2024-02-04T14:18:00;6.40;57.90
39655;DHT22;25336;59.944;11.010;2024-02-04T14:20:26;6.40;57.80
39655;DHT22;25336;59.944;11.010;2024-02-04T14:22:52;6.40;57.80
39655;DHT22;25336;59.944;11.010;2024-02-04T14:25:21;6.40;57.60
39655;DHT22;25336;59.944;11.010;2024-02-04T14:27:52;6.40;57.60
39655;DHT22;25336;59.944;11.010;2024-02-04T14:30:19;6.40;57.60
39655;DHT22;25336;59.944;11.010;2024-02-04T14:32:45;6.40;57.60
39655;DHT22;25336;59.944;11.010;2024-02-04T14:35:14;6.40;57.60
39655;DHT22;25336;59.944;11.010;2024-02-04T14:37:41;6.30;57.50
39655;DHT22;25336;59.944;11.010;2024-02-04T14:40:09;6.30;57.50
39655;DHT22;25336;59.944;11.010;2024-02-04T14:42:36;6.30;57.50
39655;DHT22;25336;59.944;11.010;2024-02-04T14:45:01;6.30;57.40
39655;DHT22;25336;59.944;11.010;2024-02-04T14:47:28;6.30;57.30
39655;DHT22;25336;59.944;11.010;2024-02-04T14:49:54;6.20;57.30
39655;DHT22;25336;59.944;11.010;2024-02-04T14:52:20;6.20;57.30
39655;DHT22;25336;59.944;11.010;2024-02-04T14:54:46;6.20;57.30
39655;DHT22;25336;59.944;11.010;2024-02-04T14:57:11;5.70;57.00
39655;DHT22;25336;59.944;11.010;2024-02-04T15:01:03;6.10;56.70
39655;DHT22;25336;59.944;11.010;2024-02-04T15:03:29;6.10;57.40
39655;DHT22;25336;59.944;11.010;2024-02-04T15:05:55;6.10;57.30
39655;DHT22;25336;59.944;11.010;2024-02-04T15:08:21;6.20;57.40
39655;DHT22;25336;59.944;11.010;2024-02-04T15:10:47;6.00;57.30
39655;DHT22;25336;59.944;11.010;2024-02-04T15:13:13;6.00;57.40
39655;DHT22;25336;59.944;11.010;2024-02-04T15:15:39;5.90;58.00
39655;DHT22;25336;59.944;11.010;2024-02-04T15:18:06;5.90;57.40
39655;DHT22;25336;59.944;11.010;2024-02-04T15:20:32;5.80;57.50
39655;DHT22;25336;59.944;11.010;2024-02-04T15:22:58;5.80;57.60
39655;DHT22;25336;59.944;11.010;2024-02-04T15:25:27;5.70;57.50
39655;DHT22;25336;59.944;11.010;2024-02-04T15:27:54;5.70;57.50
39655;DHT22;25336;59.944;11.010;2024-02-04T15:30:21;5.70;57.60
39655;DHT22;25336;59.944;11.010;2024-02-04T15:32:47;5.60;57.60
39655;DHT22;25336;59.944;11.010;2024-02-04T15:35:14;5.60;57.60
39655;DHT22;25336;59.944;11.010;2024-02-04T15:37:39;5.60;57.70
39655;DHT22;25336;59.944;11.010;2024-02-04T15:40:06;5.50;57.70
39655;DHT22;25336;59.944;11.010;2024-02-04T15:42:31;5.50;57.80